createdAt,value
2022-08-25T00:01:59.899Z,27.39
2022-08-25T00:05:03.623Z,27.60
2022-08-25T00:08:08.984Z,27.30
2022-08-25T00:11:23.503Z,27.27
2022-08-25T00:14:33.314Z,27.25
2022-08-25T00:17:36.863Z,27.36
2022-08-25T00:20:40.773Z,27.30
2022-08-25T00:23:52.164Z,27.02
2022-08-25T00:26:57.278Z,26.67
2022-08-25T00:30:00.465Z,26.95
2022-08-25T00:33:04.017Z,26.91
2022-08-25T00:36:07.501Z,27.08
2022-08-25T00:39:11.857Z,26.77
2022-08-25T00:42:16.286Z,26.57
2022-08-25T00:45:19.820Z,26.47
2022-08-25T00:48:23.489Z,26.53
2022-08-25T00:51:49.946Z,26.39
2022-08-25T00:55:07.871Z,26.33
2022-08-25T00:58:17.156Z,26.41
2022-08-25T01:01:20.301Z,26.17
2022-08-25T01:04:23.679Z,26.24
2022-08-25T01:07:26.818Z,26.10
2022-08-25T01:10:32.242Z,25.64
2022-08-25T01:13:40.187Z,25.65
2022-08-25T01:16:43.984Z,25.94
2022-08-25T01:19:47.213Z,26.26
2022-08-25T01:22:55.192Z,25.89
2022-08-25T01:26:15.127Z,25.94
2022-08-25T01:29:18.533Z,26.20
2022-08-25T01:32:21.633Z,26.08
2022-08-25T01:35:24.783Z,26.04
2022-08-25T01:38:27.870Z,26.13
2022-08-25T01:41:32.543Z,26.01
2022-08-25T01:44:41.975Z,26.10
2022-08-25T01:47:45.181Z,26.21
2022-08-25T01:50:48.365Z,25.91
2022-08-25T01:53:51.710Z,25.32
2022-08-25T01:56:54.868Z,25.52
2022-08-25T01:59:58.994Z,25.91
2022-08-25T02:03:02.268Z,25.93
2022-08-25T02:06:08.842Z,26.08
2022-08-25T02:09:14.435Z,25.94
2022-08-25T02:12:17.581Z,26.15
2022-08-25T02:15:21.053Z,25.86
2022-08-25T02:18:24.513Z,25.98
2022-08-25T02:21:28.491Z,25.83
2022-08-25T02:24:31.669Z,25.98
2022-08-25T02:27:37.175Z,25.99
2022-08-25T02:30:43.758Z,25.97
2022-08-25T02:33:47.188Z,25.90
2022-08-25T02:36:50.269Z,25.98
2022-08-25T02:39:55.787Z,25.90
2022-08-25T02:42:58.981Z,26.03
2022-08-25T02:46:02.171Z,26.07
2022-08-25T02:49:08.083Z,25.95
2022-08-25T02:52:12.251Z,25.91
2022-08-25T02:55:15.494Z,25.63
2022-08-25T02:58:20.593Z,25.67
2022-08-25T03:01:28.781Z,25.43
2022-08-25T03:04:32.629Z,25.63
2022-08-25T03:07:37.280Z,25.75
2022-08-25T03:10:41.271Z,25.77
2022-08-25T03:13:44.521Z,25.68
2022-08-25T03:16:47.642Z,25.93
2022-08-25T03:19:50.847Z,25.34
2022-08-25T03:22:54.069Z,25.50
2022-08-25T03:25:57.574Z,25.69
2022-08-25T03:29:04.501Z,26.02
2022-08-25T03:32:07.838Z,25.65
2022-08-25T03:35:11.230Z,25.73
2022-08-25T03:38:14.291Z,25.45
2022-08-25T03:41:24.129Z,25.51
2022-08-25T03:44:31.219Z,25.59
2022-08-25T03:47:34.821Z,25.89
2022-08-25T03:50:38.047Z,25.68
2022-08-25T03:53:41.110Z,25.59
2022-08-25T03:56:44.261Z,25.69
2022-08-25T03:59:47.706Z,25.81
2022-08-25T04:02:50.877Z,25.65
2022-08-25T04:05:55.093Z,25.66
2022-08-25T04:08:59.426Z,25.76
2022-08-25T04:12:02.697Z,25.64
2022-08-25T04:15:08.087Z,25.88
2022-08-25T04:18:11.593Z,26.19
2022-08-25T04:21:15.289Z,26.20
2022-08-25T04:24:18.559Z,26.04
2022-08-25T04:27:21.715Z,25.97
2022-08-25T04:30:24.820Z,26.01
2022-08-25T04:33:27.920Z,25.92
2022-08-25T04:36:31.063Z,26.10
2022-08-25T04:39:34.395Z,26.03
2022-08-25T04:42:37.661Z,26.06
2022-08-25T04:45:41.091Z,25.94
2022-08-25T04:48:44.825Z,26.05
2022-08-25T04:51:48.009Z,25.96
2022-08-25T04:54:51.274Z,25.84
2022-08-25T04:57:54.307Z,25.74
2022-08-25T05:01:06.384Z,25.90
2022-08-25T05:04:14.675Z,25.96
2022-08-25T05:07:31.148Z,26.05
2022-08-25T05:10:35.110Z,26.03
2022-08-25T05:13:38.226Z,26.21
2022-08-25T05:16:43.483Z,26.01
2022-08-25T05:19:46.643Z,26.03
2022-08-25T05:22:49.703Z,26.25
2022-08-25T05:25:53.532Z,26.31
2022-08-25T05:28:57.108Z,26.18
2022-08-25T05:32:00.311Z,26.18
2022-08-25T05:35:03.929Z,26.14
2022-08-25T05:38:07.382Z,26.18
2022-08-25T05:41:21.195Z,26.18
2022-08-25T05:44:24.364Z,26.23
2022-08-25T05:47:27.645Z,26.08
2022-08-25T05:50:30.904Z,26.18
2022-08-25T05:53:37.074Z,26.21
2022-08-25T05:56:40.211Z,26.20
2022-08-25T05:59:43.295Z,25.99
2022-08-25T06:02:48.800Z,26.17
2022-08-25T06:05:51.868Z,26.25
2022-08-25T06:08:54.991Z,26.24
2022-08-25T06:12:00.509Z,26.19
2022-08-25T06:15:04.461Z,26.19
2022-08-25T06:18:07.787Z,26.07
2022-08-25T06:21:13.467Z,25.79
2022-08-25T06:24:17.277Z,25.91
2022-08-25T06:27:20.473Z,25.91
2022-08-25T06:30:28.884Z,25.98
2022-08-25T06:33:32.590Z,26.05
2022-08-25T06:36:35.765Z,26.03
2022-08-25T06:39:38.947Z,26.05
2022-08-25T06:42:42.191Z,25.92
2022-08-25T06:45:45.790Z,26.15
2022-08-25T06:48:49.604Z,26.06
2022-08-25T06:51:52.729Z,26.07
2022-08-25T06:54:56.007Z,26.09
2022-08-25T06:57:59.168Z,26.09
2022-08-25T07:01:28.527Z,25.89
2022-08-25T07:04:37.109Z,25.88
2022-08-25T07:07:43.743Z,26.03
2022-08-25T07:10:47.974Z,26.12
2022-08-25T07:13:51.591Z,25.93
2022-08-25T07:16:54.685Z,26.04
2022-08-25T07:19:57.898Z,25.83
2022-08-25T07:23:01.080Z,26.04
2022-08-25T07:26:34.055Z,25.98
2022-08-25T07:33:06.363Z,25.80
2022-08-25T07:36:10.148Z,25.93
2022-08-25T07:39:13.504Z,26.04
2022-08-25T07:42:16.914Z,26.08
2022-08-25T07:45:22.830Z,26.16
2022-08-25T07:48:26.120Z,25.99
2022-08-25T07:51:29.506Z,26.04
2022-08-25T07:54:34.404Z,25.87
2022-08-25T07:57:40.659Z,25.78
2022-08-25T08:00:44.016Z,25.56
2022-08-25T08:03:51.099Z,25.57
2022-08-25T08:06:54.653Z,25.70
2022-08-25T08:10:25.665Z,25.85
2022-08-25T08:13:21.026Z,25.88
2022-08-25T08:16:27.695Z,25.88
2022-08-25T08:19:31.107Z,25.89
2022-08-25T08:22:34.424Z,26.08
2022-08-25T08:25:37.504Z,25.83
2022-08-25T08:28:40.615Z,25.84
2022-08-25T08:31:48.358Z,25.79
2022-08-25T08:34:52.071Z,25.71
2022-08-25T08:37:55.182Z,25.58
2022-08-25T08:41:17.456Z,25.76
2022-08-25T08:44:47.076Z,25.71
2022-08-25T08:48:11.613Z,25.51
2022-08-25T08:51:14.830Z,25.51
2022-08-25T08:54:23.040Z,25.60
2022-08-25T08:57:28.003Z,25.48
2022-08-25T09:00:32.341Z,25.57
2022-08-25T09:03:44.312Z,25.50
2022-08-25T09:06:50.372Z,25.55
2022-08-25T09:09:53.774Z,25.60
2022-08-25T09:13:11.238Z,25.48
2022-08-25T09:16:33.783Z,25.53
2022-08-25T09:19:56.023Z,25.45
2022-08-25T09:23:12.811Z,25.53
2022-08-25T09:26:39.744Z,25.58
2022-08-25T09:29:53.198Z,25.54
2022-08-25T09:32:57.061Z,25.44
2022-08-25T09:36:05.942Z,25.68
2022-08-25T09:39:10.022Z,25.55
2022-08-25T09:42:13.142Z,25.66
2022-08-25T09:45:16.862Z,25.72
2022-08-25T09:48:58.976Z,25.75
2022-08-25T09:52:38.558Z,25.74
2022-08-25T09:55:45.835Z,25.58
2022-08-25T09:58:49.901Z,25.67
2022-08-25T10:01:58.164Z,25.64
2022-08-25T10:05:26.678Z,25.69
2022-08-25T10:08:40.042Z,25.57
2022-08-25T10:11:46.188Z,25.54
2022-08-25T10:14:49.415Z,25.56
2022-08-25T10:17:58.528Z,25.77
2022-08-25T10:21:15.029Z,25.65
2022-08-25T10:24:20.341Z,25.68
2022-08-25T10:27:32.886Z,25.72
2022-08-25T10:30:57.971Z,25.64
2022-08-25T10:34:04.948Z,25.69
2022-08-25T10:37:33.745Z,25.76
2022-08-25T10:41:10.417Z,25.85
2022-08-25T10:44:24.619Z,25.72
2022-08-25T10:47:39.606Z,25.54
2022-08-25T10:51:21.441Z,25.16
2022-08-25T10:55:02.777Z,25.58
2022-08-25T10:58:47.590Z,25.52
2022-08-25T11:02:30.678Z,25.69
2022-08-25T11:05:43.834Z,25.47
2022-08-25T11:08:52.771Z,25.54
2022-08-25T11:12:03.990Z,25.60
2022-08-25T11:15:36.682Z,25.55
2022-08-25T11:19:06.703Z,25.67
2022-08-25T11:22:24.781Z,25.70
2022-08-25T11:25:34.999Z,25.54
2022-08-25T11:28:54.676Z,25.85
2022-08-25T11:32:00.861Z,25.74
2022-08-25T11:35:09.583Z,25.73
2022-08-25T11:38:17.965Z,25.65
2022-08-25T11:41:28.115Z,25.78
2022-08-25T11:44:53.482Z,25.84
2022-08-25T11:48:15.217Z,25.91
2022-08-25T11:51:36.545Z,25.80
2022-08-25T11:54:46.709Z,25.97
2022-08-25T11:57:53.570Z,25.83
2022-08-25T12:00:58.938Z,25.84
2022-08-25T12:04:44.699Z,25.98
2022-08-25T12:07:48.532Z,26.05
2022-08-25T12:11:09.943Z,25.79
2022-08-25T12:14:23.060Z,25.79
2022-08-25T12:17:41.615Z,25.77
2022-08-25T12:20:53.712Z,25.74
2022-08-25T12:24:07.127Z,25.86
2022-08-25T12:27:22.983Z,25.90
2022-08-25T12:30:39.612Z,25.69
2022-08-25T12:33:54.544Z,25.77
2022-08-25T12:37:20.655Z,25.96
2022-08-25T12:40:35.196Z,26.04
2022-08-25T12:43:49.521Z,25.80
2022-08-25T12:47:25.210Z,25.97
2022-08-25T12:50:41.741Z,25.74
2022-08-25T12:53:52.718Z,25.60
2022-08-25T12:56:59.862Z,25.67
2022-08-25T13:03:54.214Z,25.56
2022-08-25T13:07:36.437Z,25.93
2022-08-25T13:11:05.305Z,26.03
2022-08-25T13:14:13.157Z,25.87
2022-08-25T13:17:27.406Z,26.10
2022-08-25T13:20:32.234Z,25.92
2022-08-25T13:23:41.983Z,26.07
2022-08-25T13:26:54.703Z,25.99
2022-08-25T13:30:03.587Z,26.25
2022-08-25T13:33:20.323Z,26.04
2022-08-25T13:36:28.440Z,25.89
2022-08-25T13:39:55.413Z,25.93
2022-08-25T13:43:07.725Z,26.01
2022-08-25T13:46:10.936Z,26.32
2022-08-25T13:49:26.437Z,26.39
2022-08-25T13:52:30.852Z,26.23
2022-08-25T13:55:51.535Z,26.35
2022-08-25T13:58:57.002Z,26.44
2022-08-25T14:02:01.296Z,26.35
2022-08-25T14:05:04.945Z,26.39
2022-08-25T14:08:34.312Z,26.18
2022-08-25T14:11:49.383Z,26.21
2022-08-25T14:15:20.163Z,26.02
2022-08-25T14:18:29.168Z,26.08
2022-08-25T14:21:36.281Z,26.08
2022-08-25T14:24:46.319Z,25.96
2022-08-25T14:28:14.236Z,25.89
2022-08-25T14:31:40.067Z,26.24
2022-08-25T14:34:43.401Z,26.01
2022-08-25T14:37:46.765Z,25.96
2022-08-25T14:40:50.054Z,26.19
2022-08-25T14:43:54.322Z,26.33
2022-08-25T14:46:57.912Z,26.05
2022-08-25T14:50:02.213Z,26.01
2022-08-25T14:53:06.102Z,26.17
2022-08-25T14:56:10.381Z,26.12
2022-08-25T14:59:14.502Z,25.91
2022-08-25T15:02:20.288Z,26.06
2022-08-25T15:05:26.543Z,26.02
2022-08-25T15:08:33.849Z,26.14
2022-08-25T15:11:42.932Z,26.16
2022-08-25T15:14:46.033Z,26.09
2022-08-25T15:17:49.315Z,26.19
2022-08-25T15:20:53.648Z,26.51
2022-08-25T15:23:56.714Z,26.51
2022-08-25T15:27:01.946Z,26.64
2022-08-25T15:30:06.054Z,26.49
2022-08-25T15:33:09.366Z,26.46
2022-08-25T15:36:15.190Z,26.38
2022-08-25T15:39:19.288Z,26.64
2022-08-25T15:42:22.793Z,26.58
2022-08-25T15:45:28.083Z,26.80
2022-08-25T15:48:31.144Z,27.08
2022-08-25T15:51:34.391Z,27.24
2022-08-25T15:54:37.814Z,27.06
2022-08-25T15:57:42.304Z,27.21
2022-08-25T16:00:56.253Z,27.44
2022-08-25T16:04:00.072Z,27.40
2022-08-25T16:07:03.112Z,27.77
2022-08-25T16:10:10.213Z,28.00
2022-08-25T16:13:16.552Z,28.88
2022-08-25T16:16:24.155Z,28.46
2022-08-25T16:19:28.818Z,28.21
2022-08-25T16:22:31.987Z,28.47
2022-08-25T16:25:41.176Z,29.22
2022-08-25T16:28:45.832Z,28.95
2022-08-25T16:31:53.377Z,29.49
2022-08-25T16:34:59.251Z,29.86
2022-08-25T16:38:03.836Z,29.65
2022-08-25T16:41:08.991Z,29.38
2022-08-25T16:44:12.404Z,29.56
2022-08-25T16:47:17.624Z,29.97
2022-08-25T16:50:23.394Z,29.54
2022-08-25T16:53:26.823Z,29.33
2022-08-25T16:56:30.514Z,30.00
2022-08-25T16:59:33.729Z,30.02
2022-08-25T17:02:36.935Z,29.70
2022-08-25T17:05:42.411Z,29.07
2022-08-25T17:08:45.519Z,30.00
2022-08-25T17:11:51.654Z,29.86
2022-08-25T17:14:57.632Z,30.11
2022-08-25T17:18:01.317Z,29.73
2022-08-25T17:21:11.243Z,29.93
2022-08-25T17:24:20.190Z,29.41
2022-08-25T17:27:23.426Z,29.73
2022-08-25T17:30:26.816Z,30.45
2022-08-25T17:33:31.139Z,29.95
2022-08-25T17:36:35.864Z,30.11
2022-08-25T17:39:39.230Z,30.59
2022-08-25T17:42:44.875Z,31.02
2022-08-25T17:45:48.389Z,31.65
2022-08-25T17:48:51.696Z,31.25
2022-08-25T17:51:54.779Z,30.52
2022-08-25T17:54:58.999Z,30.89
2022-08-25T17:58:05.471Z,30.42
2022-08-25T18:01:19.854Z,30.50
2022-08-25T18:04:27.267Z,31.65
2022-08-25T18:07:33.106Z,31.21
2022-08-25T18:10:36.531Z,32.01
2022-08-25T18:13:40.044Z,32.09
2022-08-25T18:16:43.146Z,32.18
2022-08-25T18:19:46.271Z,31.28
2022-08-25T18:22:49.480Z,32.39
2022-08-25T18:25:52.610Z,32.18
2022-08-25T18:29:05.036Z,31.60
2022-08-25T18:32:08.637Z,31.89
2022-08-25T18:35:15.499Z,32.42
2022-08-25T18:38:24.966Z,31.58
2022-08-25T18:41:29.130Z,31.79
2022-08-25T18:44:35.328Z,31.37
2022-08-25T18:47:38.440Z,31.53
2022-08-25T18:50:42.610Z,31.28
2022-08-25T18:53:50.473Z,30.77
2022-08-25T18:56:54.215Z,30.86
2022-08-25T18:59:57.303Z,31.55
2022-08-25T19:03:01.669Z,31.61
2022-08-25T19:06:07.322Z,31.31
2022-08-25T19:09:10.469Z,31.38
2022-08-25T19:12:20.673Z,31.31
2022-08-25T19:15:27.295Z,31.41
2022-08-25T19:18:31.535Z,31.97
2022-08-25T19:21:36.408Z,32.01
2022-08-25T19:24:39.458Z,32.18
2022-08-25T19:27:46.005Z,31.82
2022-08-25T19:30:50.388Z,31.59
2022-08-25T19:33:56.154Z,32.23
2022-08-25T19:37:04.344Z,31.83
2022-08-25T19:40:09.372Z,32.17
2022-08-25T19:43:14.509Z,32.35
2022-08-25T19:46:21.516Z,32.38
2022-08-25T19:49:31.747Z,32.47
2022-08-25T19:52:35.964Z,32.29
2022-08-25T19:55:39.577Z,31.51
2022-08-25T19:58:42.758Z,31.66
2022-08-25T20:01:46.719Z,31.45
2022-08-25T20:04:51.300Z,32.51
2022-08-25T20:07:55.277Z,32.16
2022-08-25T20:10:58.419Z,31.64
2022-08-25T20:14:03.897Z,31.99
2022-08-25T20:17:23.896Z,32.07
2022-08-25T20:20:32.581Z,31.56
2022-08-25T20:23:38.891Z,31.36
2022-08-25T20:26:43.009Z,31.14
2022-08-25T20:29:46.372Z,31.54
2022-08-25T20:32:50.996Z,31.68
2022-08-25T20:35:54.126Z,31.70
2022-08-25T20:38:59.803Z,31.45
2022-08-25T20:42:07.106Z,31.45
2022-08-25T20:45:11.401Z,31.32
2022-08-25T20:48:14.533Z,31.47
2022-08-25T20:51:18.434Z,31.27
2022-08-25T20:54:21.894Z,31.35
2022-08-25T20:57:26.587Z,30.48
2022-08-25T21:00:31.380Z,31.02
2022-08-25T21:03:34.732Z,30.71
2022-08-25T21:06:38.728Z,31.04
2022-08-25T21:09:42.034Z,30.39
2022-08-25T21:12:49.280Z,30.72
2022-08-25T21:15:58.374Z,30.93
2022-08-25T21:19:01.790Z,30.27
2022-08-25T21:22:05.816Z,30.53
2022-08-25T21:25:10.804Z,30.49
2022-08-25T21:28:13.959Z,30.08
2022-08-25T21:31:19.816Z,30.32
2022-08-25T21:34:22.921Z,30.17
2022-08-25T21:37:26.752Z,30.67
2022-08-25T21:40:30.088Z,30.68
2022-08-25T21:43:33.231Z,31.18
2022-08-25T21:46:38.006Z,30.85
2022-08-25T21:49:41.305Z,30.06
2022-08-25T21:52:44.437Z,30.44
2022-08-25T21:55:47.579Z,30.75
2022-08-25T21:58:50.980Z,30.78
2022-08-25T22:01:58.618Z,30.95
2022-08-25T22:05:01.778Z,30.83
2022-08-25T22:08:05.266Z,30.70
2022-08-25T22:11:09.231Z,31.16
2022-08-25T22:14:14.071Z,31.23
2022-08-25T22:17:20.942Z,31.41
2022-08-25T22:20:24.655Z,31.20
2022-08-25T22:23:28.745Z,31.18
2022-08-25T22:26:34.698Z,30.34
2022-08-25T22:29:37.944Z,30.23
2022-08-25T22:32:41.295Z,30.21
2022-08-25T22:35:44.426Z,30.24
2022-08-25T22:38:48.230Z,30.24
2022-08-25T22:41:54.423Z,30.01
2022-08-25T22:44:58.677Z,30.41
2022-08-25T22:48:02.068Z,30.45
2022-08-25T22:51:13.751Z,30.15
2022-08-25T22:54:19.306Z,30.27
2022-08-25T22:57:22.417Z,30.38
2022-08-25T23:00:25.726Z,30.02
2022-08-25T23:03:29.928Z,30.42
2022-08-25T23:06:35.593Z,30.42
2022-08-25T23:09:39.117Z,30.10
2022-08-25T23:12:44.011Z,30.23
2022-08-25T23:15:48.083Z,29.38
2022-08-25T23:18:51.211Z,29.47
2022-08-25T23:21:54.315Z,29.99
2022-08-25T23:25:00.225Z,29.87
2022-08-25T23:28:08.976Z,29.85
2022-08-25T23:31:13.503Z,29.89
2022-08-25T23:34:18.183Z,30.13
2022-08-25T23:37:21.285Z,30.21
2022-08-25T23:40:24.871Z,30.02
2022-08-25T23:43:28.176Z,30.10
2022-08-25T23:46:31.707Z,29.85
2022-08-25T23:49:34.812Z,29.65
2022-08-25T23:52:38.121Z,29.11
2022-08-25T23:55:52.890Z,28.89
2022-08-25T23:58:58.857Z,29.00
